Time;durP1;ratioP1;P1;durP2;ratioP2;P2;SDS_P1;SDS_P2;PMS_P1;PMS_P2;Temp;Humidity;BMP_temperature;BMP_pressure;BME280_temperature;BME280_humidity;BME280_pressure;Samples;Min_cycle;Max_cycle;Signal;HPM_P1;HPM_P2
2021/07/29 04:32:24;;;;;;;4.53;3.73;;;16.70;99.90;;;;;;5252339;23;20509;-79
2021/07/29 04:34:49;;;;;;;4.50;4.00;;;16.70;99.90;;;;;;4980877;28;20475;-80
2021/07/29 04:37:15;;;;;;;5.27;3.67;;;16.80;99.90;;;;;;4977672;28;20591;-78
2021/07/29 04:39:42;;;;;;;3.80;3.50;;;16.80;99.90;;;;;;4979767;28;20567;-80
2021/07/29 04:42:10;;;;;;;4.43;3.37;;;16.80;99.90;;;;;;4978757;28;20423;-80
2021/07/29 04:44:36;;;;;;;6.30;3.73;;;16.90;99.90;;;;;;4973342;28;20443;-79
2021/07/29 04:47:02;;;;;;;3.47;3.17;;;16.90;99.90;;;;;;4975781;28;20423;-79
2021/07/29 04:49:27;;;;;;;3.03;2.80;;;17.00;99.90;;;;;;4965597;28;20524;-80
2021/07/29 04:51:53;;;;;;;4.03;2.97;;;17.00;99.90;;;;;;4976849;28;20196;-80
2021/07/29 04:54:18;;;;;;;3.40;3.10;;;17.00;99.90;;;;;;4975122;28;20220;-79
2021/07/29 04:56:44;;;;;;;3.50;3.20;;;17.10;99.90;;;;;;4977782;28;20258;-80
2021/07/29 04:59:09;;;;;;;5.70;3.17;;;17.10;99.90;;;;;;4972413;28;20193;-80
2021/07/29 05:01:38;;;;;;;6.03;3.20;;;17.20;99.90;;;;;;4975603;28;20239;-80
2021/07/29 05:04:04;;;;;;;3.23;2.97;;;17.20;99.90;;;;;;4974283;28;20177;-79
2021/07/29 05:06:30;;;;;;;5.13;2.70;;;17.30;99.90;;;;;;4969100;28;20453;-77
2021/07/29 05:08:55;;;;;;;8.20;3.50;;;17.40;99.90;;;;;;4972707;28;20231;-77
2021/07/29 05:11:21;;;;;;;3.10;2.43;;;17.40;99.90;;;;;;4967986;28;20227;-77
2021/07/29 05:13:46;;;;;;;6.17;3.03;;;17.50;99.90;;;;;;4967569;28;20217;-77
2021/07/29 05:16:12;;;;;;;2.87;2.77;;;17.50;99.90;;;;;;4961391;28;20255;-78
2021/07/29 05:18:37;;;;;;;4.90;2.70;;;17.60;99.90;;;;;;4953135;29;20177;-75
2021/07/29 05:21:05;;;;;;;2.80;2.60;;;17.80;99.90;;;;;;4952846;28;20197;-77
2021/07/29 05:23:31;;;;;;;2.80;2.50;;;18.00;99.90;;;;;;4953124;28;20212;-78
2021/07/29 05:25:56;;;;;;;2.77;2.60;;;18.10;99.90;;;;;;4968462;28;20470;-76
2021/07/29 05:28:22;;;;;;;3.23;2.73;;;18.10;99.90;;;;;;4968281;28;20185;-76
2021/07/29 05:30:48;;;;;;;3.07;2.47;;;18.20;99.90;;;;;;4962309;28;20184;-77
2021/07/29 05:33:13;;;;;;;3.10;2.90;;;18.20;99.90;;;;;;4964362;28;20180;-76
2021/07/29 05:35:39;;;;;;;4.67;2.53;;;18.30;99.90;;;;;;4970213;28;20665;-78
2021/07/29 05:38:05;;;;;;;3.03;2.63;;;18.50;99.90;;;;;;4970180;28;20258;-71
2021/07/29 05:40:30;;;;;;;2.60;2.40;;;18.90;99.90;;;;;;4972000;28;20211;-72
2021/07/29 05:42:56;;;;;;;4.50;3.00;;;19.40;99.90;;;;;;4970474;28;20323;-74
2021/07/29 05:45:21;;;;;;;2.70;2.50;;;20.00;99.90;;;;;;4968486;28;20207;-73
2021/07/29 05:47:47;;;;;;;3.00;2.50;;;20.50;99.90;;;;;;4972043;28;20243;-73
2021/07/29 05:50:12;;;;;;;7.03;2.67;;;21.00;99.90;;;;;;4969662;28;20190;-72
2021/07/29 05:52:38;;;;;;;2.43;2.27;;;21.30;99.90;;;;;;4972047;28;20208;-72
2021/07/29 05:55:05;;;;;;;2.63;2.43;;;21.40;99.90;;;;;;4968927;28;20226;-71
2021/07/29 05:57:32;;;;;;;2.53;2.20;;;21.60;99.90;;;;;;4969778;28;20210;-73
2021/07/29 05:59:57;;;;;;;2.83;2.53;;;21.50;99.90;;;;;;4967564;28;20443;-70
2021/07/29 06:02:23;;;;;;;3.33;2.73;;;21.50;99.90;;;;;;4974776;28;20432;-73
2021/07/29 06:04:48;;;;;;;2.30;2.10;;;21.50;99.90;;;;;;4975177;28;20263;-73
2021/07/29 06:07:14;;;;;;;2.50;2.20;;;21.40;99.90;;;;;;4971724;28;20188;-71
2021/07/29 06:09:39;;;;;;;2.57;2.37;;;21.40;99.90;;;;;;4975601;28;20176;-73
2021/07/29 06:12:05;;;;;;;4.17;2.50;;;21.30;99.90;;;;;;4973261;28;20216;-71
2021/07/29 06:14:31;;;;;;;2.80;1.93;;;21.20;99.90;;;;;;4973179;28;20212;-73
2021/07/29 06:16:57;;;;;;;5.23;2.70;;;21.10;99.90;;;;;;4973619;28;20219;-71
2021/07/29 06:19:29;;;;;;;2.07;1.90;;;20.90;99.90;;;;;;4973388;28;20660;-73
2021/07/29 06:21:56;;;;;;;2.13;1.93;;;20.90;99.90;;;;;;4973227;28;20830;-72
2021/07/29 06:24:22;;;;;;;2.53;2.33;;;20.80;99.90;;;;;;4973937;28;20441;-72
2021/07/29 06:26:49;;;;;;;3.10;2.37;;;20.90;99.90;;;;;;4975135;28;20503;-72
2021/07/29 06:29:14;;;;;;;2.27;2.17;;;20.80;99.90;;;;;;4968809;28;20191;-73
2021/07/29 06:31:40;;;;;;;4.83;2.70;;;20.90;99.90;;;;;;4973758;28;20529;-72
2021/07/29 06:34:05;;;;;;;2.80;2.60;;;21.00;99.90;;;;;;4969889;28;20241;-72
2021/07/29 06:36:31;;;;;;;3.00;2.60;;;21.40;99.90;;;;;;4975136;28;20684;-73
2021/07/29 06:38:59;;;;;;;2.27;2.07;;;21.50;99.90;;;;;;4972923;28;20180;-71
2021/07/29 06:41:25;;;;;;;2.53;2.27;;;21.60;99.90;;;;;;4974486;28;20200;-71
2021/07/29 06:43:51;;;;;;;2.43;2.33;;;21.60;99.90;;;;;;4972686;28;20446;-72
2021/07/29 06:46:16;;;;;;;3.00;2.47;;;21.70;99.90;;;;;;4974799;28;20501;-71
2021/07/29 06:48:42;;;;;;;3.90;2.60;;;22.00;99.90;;;;;;4974147;28;20176;-77
2021/07/29 06:51:08;;;;;;;6.50;2.30;;;22.00;99.90;;;;;;4971293;28;20362;-73
2021/07/29 06:53:35;;;;;;;2.13;1.93;;;22.40;99.90;;;;;;4974788;28;20686;-73
2021/07/29 06:56:05;;;;;;;4.20;2.23;;;22.70;99.90;;;;;;4972716;28;20786;-73
2021/07/29 06:58:31;;;;;;;2.70;1.93;;;22.80;99.90;;;;;;4972595;28;20432;-74
2021/07/29 07:01:01;;;;;;;2.73;2.10;;;23.20;99.90;;;;;;4972861;28;20530;-72
2021/07/29 07:03:27;;;;;;;8.07;2.17;;;23.20;99.90;;;;;;4973204;28;20575;-73
2021/07/29 07:05:58;;;;;;;9.17;2.90;;;23.20;99.90;;;;;;4972453;28;20824;-73
2021/07/29 07:08:23;;;;;;;2.70;2.50;;;23.00;99.90;;;;;;4974548;28;20426;-73
2021/07/29 07:10:49;;;;;;;3.50;2.40;;;23.00;99.90;;;;;;4972556;28;20423;-74
2021/07/29 07:13:14;;;;;;;2.70;2.03;;;23.00;99.90;;;;;;4960318;28;20550;-72
2021/07/29 07:15:42;;;;;;;4.90;2.40;;;23.30;99.90;;;;;;4971006;28;20741;-74
2021/07/29 07:18:08;;;;;;;2.60;2.23;;;23.70;99.90;;;;;;4972417;28;20684;-75
2021/07/29 07:20:33;;;;;;;2.23;2.13;;;24.10;99.90;;;;;;4974098;28;20415;-74
2021/07/29 07:22:59;;;;;;;2.30;2.10;;;24.10;99.90;;;;;;4970610;28;20528;-73
2021/07/29 07:25:24;;;;;;;2.53;2.40;;;24.50;99.90;;;;;;4973880;28;20199;-73
2021/07/29 07:27:50;;;;;;;2.40;2.10;;;24.70;99.90;;;;;;4970326;28;20192;-76
2021/07/29 07:30:15;;;;;;;4.30;2.70;;;25.00;99.90;;;;;;4956988;28;20196;-73
2021/07/29 07:32:41;;;;;;;2.40;1.97;;;25.40;99.90;;;;;;4956296;28;20319;-75
2021/07/29 07:35:07;;;;;;;3.73;2.07;;;25.20;99.90;;;;;;4971960;28;20219;-74
2021/07/29 07:37:32;;;;;;;2.37;2.17;;;25.20;99.90;;;;;;4974029;28;20187;-73
2021/07/29 07:39:58;;;;;;;3.10;2.37;;;25.40;99.90;;;;;;4972780;28;20438;-71
2021/07/29 07:42:24;;;;;;;8.43;3.10;;;25.40;99.90;;;;;;4973684;28;20196;-75
2021/07/29 07:44:55;;;;;;;3.90;2.73;;;25.80;99.90;;;;;;4969614;28;20584;-75
2021/07/29 07:47:20;;;;;;;3.80;2.70;;;26.10;99.90;;;;;;4973944;28;20176;-74
2021/07/29 07:49:46;;;;;;;6.30;2.37;;;25.30;99.90;;;;;;4971785;28;20446;-74
2021/07/29 07:52:11;;;;;;;1.97;1.80;;;25.10;99.90;;;;;;4973734;28;20235;-74
2021/07/29 07:54:37;;;;;;;2.80;2.40;;;25.10;99.90;;;;;;4972386;28;20208;-74
2021/07/29 07:57:05;;;;;;;2.63;2.43;;;25.00;99.90;;;;;;4969006;28;20215;-74
2021/07/29 07:59:36;;;;;;;4.27;3.00;;;24.40;99.90;;;;;;4971516;28;20271;-74
2021/07/29 08:02:01;;;;;;;3.73;2.27;;;24.10;99.90;;;;;;4970266;28;20557;-74
2021/07/29 08:04:28;;;;;;;2.70;2.10;;;23.90;99.90;;;;;;4973555;28;20502;-72
2021/07/29 08:06:53;;;;;;;2.60;2.50;;;23.30;99.90;;;;;;4969782;28;20198;-72
2021/07/29 08:09:19;;;;;;;4.93;2.40;;;23.10;99.90;;;;;;4973352;28;20793;-74
2021/07/29 08:11:44;;;;;;;2.50;2.40;;;22.90;99.90;;;;;;4971314;28;20207;-71
2021/07/29 08:14:10;;;;;;;4.87;3.13;;;22.80;99.90;;;;;;4970239;28;20226;-74
2021/07/29 08:16:37;;;;;;;2.57;2.37;;;22.60;99.90;;;;;;4973179;28;20969;-75
2021/07/29 08:19:02;;;;;;;3.30;2.70;;;22.70;99.90;;;;;;4969484;28;20180;-72
2021/07/29 08:21:28;;;;;;;2.57;2.47;;;23.20;99.90;;;;;;4973087;28;20436;-74
2021/07/29 08:23:53;;;;;;;4.57;2.50;;;23.90;99.90;;;;;;4967000;28;20223;-74
2021/07/29 08:26:19;;;;;;;3.33;2.97;;;24.50;99.90;;;;;;4972477;28;20191;-74
2021/07/29 08:28:44;;;;;;;2.40;2.20;;;24.10;99.90;;;;;;4973053;28;20176;-74
2021/07/29 08:31:12;;;;;;;5.40;2.80;;;24.00;99.90;;;;;;4972826;28;20208;-72
2021/07/29 08:33:38;;;;;;;3.43;2.63;;;24.20;99.90;;;;;;4972672;28;20333;-72
2021/07/29 08:36:05;;;;;;;4.40;2.70;;;24.90;99.90;;;;;;4973093;28;20960;-74
2021/07/29 08:38:31;;;;;;;3.00;2.80;;;25.70;99.90;;;;;;4972768;28;20411;-74
2021/07/29 08:40:57;;;;;;;2.50;2.30;;;25.70;99.90;;;;;;4972855;28;20432;-72
2021/07/29 08:43:22;;;;;;;4.63;2.50;;;25.80;99.90;;;;;;4972715;28;20404;-74
2021/07/29 08:45:51;;;;;;;3.70;2.63;;;25.60;99.90;;;;;;4972831;28;20438;-75
2021/07/29 08:48:27;;;;;;;2.90;2.70;;;25.40;99.90;;;;;;4972720;28;20179;-74
2021/07/29 08:50:57;;;;;;;3.70;3.40;;;25.20;99.90;;;;;;4972620;28;20423;-74
2021/07/29 08:53:22;;;;;;;5.50;2.50;;;25.40;99.90;;;;;;4970853;28;20403;-73
2021/07/29 08:55:53;;;;;;;3.20;2.90;;;25.20;99.90;;;;;;4972401;28;20790;-73
2021/07/29 08:58:19;;;;;;;4.40;2.80;;;24.70;99.90;;;;;;4972656;28;20226;-74
2021/07/29 09:01:00;;;;;;;3.10;2.80;;;24.40;99.90;;;;;;4972168;28;20506;-74
2021/07/29 09:03:27;;;;;;;9.63;5.40;;;24.30;99.90;;;;;;4972583;28;20851;-72
2021/07/29 09:06:00;;;;;;;4.63;3.33;;;24.30;99.90;;;;;;4971154;28;20426;-75
2021/07/29 09:08:27;;;;;;;3.23;2.93;;;24.10;99.90;;;;;;4972534;28;20423;-74
2021/07/29 09:10:53;;;;;;;5.27;3.70;;;24.50;99.90;;;;;;4972351;28;20423;-76
2021/07/29 09:13:19;;;;;;;3.90;3.43;;;25.10;99.90;;;;;;4972221;28;20423;-74
2021/07/29 09:16:05;;;;;;;10.80;4.33;;;25.80;99.90;;;;;;4970990;28;20180;-75
2021/07/29 09:18:35;;;;;;;10.83;4.47;;;25.80;99.90;;;;;;4972374;28;20423;-75
2021/07/29 09:21:11;;;;;;;7.70;3.97;;;25.20;99.90;;;;;;4972262;28;20569;-74
2021/07/29 09:23:37;;;;;;;3.93;3.30;;;24.80;99.90;;;;;;4972111;28;20470;-74
2021/07/29 09:26:02;;;;;;;4.83;3.60;;;24.70;99.90;;;;;;4971092;28;20424;-72
2021/07/29 09:28:36;;;;;;;2.50;2.30;;;24.90;99.90;;;;;;4972266;28;20184;-73
2021/07/29 09:31:14;;;;;;;3.03;2.83;;;25.50;99.90;;;;;;4971053;28;20208;-73
2021/07/29 09:34:02;;;;;;;3.10;2.90;;;26.50;99.90;;;;;;4972136;28;20455;-73
2021/07/29 09:36:33;;;;;;;2.93;2.73;;;27.40;99.90;;;;;;4975850;28;20415;-72
2021/07/29 09:39:18;;;;;;;2.80;2.60;;;28.10;99.90;;;;;;4976095;28;20414;-73
2021/07/29 09:41:45;;;;;;;4.40;3.33;;;28.70;99.90;;;;;;4976111;28;20494;-74
2021/07/29 09:44:13;;;;;;;3.63;3.33;;;28.80;99.90;;;;;;4975696;28;20426;-70
2021/07/29 09:46:39;;;;;;;2.80;2.60;;;28.80;99.90;;;;;;4976263;28;20502;-75
2021/07/29 09:49:05;;;;;;;3.40;3.10;;;28.10;99.90;;;;;;4976392;28;20447;-75
2021/07/29 09:51:31;;;;;;;2.77;2.57;;;27.00;99.90;;;;;;4975933;28;20431;-77
2021/07/29 09:53:58;;;;;;;3.13;2.83;;;26.00;99.90;;;;;;4975917;28;20462;-74
2021/07/29 09:56:23;;;;;;;3.90;2.83;;;25.50;99.90;;;;;;4975890;28;20476;-76
2021/07/29 09:58:49;;;;;;;4.60;3.00;;;26.10;99.90;;;;;;4976195;28;20779;-73
2021/07/29 10:01:18;;;;;;;3.80;3.40;;;26.80;99.90;;;;;;4975868;28;20708;-72
2021/07/29 10:03:48;;;;;;;3.40;2.67;;;27.20;99.90;;;;;;4975712;28;20356;-74
2021/07/29 10:06:16;;;;;;;3.90;3.20;;;27.20;99.90;;;;;;4975953;28;20577;-72
2021/07/29 10:08:50;;;;;;;3.50;2.97;;;27.00;99.90;;;;;;4976644;28;20516;-73
2021/07/29 10:11:20;;;;;;;3.63;2.73;;;27.00;99.90;;;;;;4979321;28;20439;-74
2021/07/29 10:13:46;;;;;;;4.03;3.40;;;27.10;99.90;;;;;;4975118;28;20450;-73
2021/07/29 10:16:17;;;;;;;3.67;3.37;;;27.20;99.90;;;;;;4975578;28;20411;-74
2021/07/29 10:18:51;;;;;;;3.10;2.90;;;27.50;99.90;;;;;;4990172;28;20187;-75
2021/07/29 10:21:21;;;;;;;3.23;2.97;;;27.80;99.90;;;;;;4975246;28;20430;-77
2021/07/29 10:23:55;;;;;;;4.23;2.83;;;27.50;99.90;;;;;;4989668;28;20419;-76
2021/07/29 10:26:21;;;;;;;2.23;2.13;;;27.80;99.90;;;;;;4975364;28;20416;-76
2021/07/29 10:28:47;;;;;;;4.17;3.77;;;28.00;99.90;;;;;;4974866;28;21051;-76
2021/07/29 10:31:15;;;;;;;4.10;3.80;;;27.90;99.90;;;;;;4974840;28;20454;-76
2021/07/29 10:33:42;;;;;;;3.80;3.50;;;27.80;99.90;;;;;;4975126;28;20455;-77
2021/07/29 10:36:28;;;;;;;6.30;4.10;;;27.60;99.90;;;;;;4975107;28;20418;-78
2021/07/29 10:39:02;;;;;;;3.73;3.43;;;27.90;99.90;;;;;;4975108;28;20478;-78
2021/07/29 10:41:34;;;;;;;3.80;3.50;;;27.70;99.90;;;;;;4990103;28;20998;-76
2021/07/29 10:44:03;;;;;;;4.63;4.03;;;27.90;99.90;;;;;;4974910;28;20426;-78
2021/07/29 10:47:01;;;;;;;4.40;4.00;;;27.90;99.90;;;;;;4974063;28;20424;-77
2021/07/29 10:49:45;;;;;;;4.20;3.90;;;28.40;99.90;;;;;;4963395;28;20435;-79
2021/07/29 10:52:15;;;;;;;3.80;3.50;;;28.60;99.90;;;;;;4989933;28;20439;-78
2021/07/29 10:54:44;;;;;;;4.03;3.10;;;29.00;99.90;;;;;;4975531;28;20830;-77
2021/07/29 10:57:11;;;;;;;4.10;3.70;;;29.30;99.90;;;;;;4975458;28;20415;-76
2021/07/29 10:59:38;;;;;;;3.80;3.50;;;29.20;99.90;;;;;;4975365;28;20917;-78
2021/07/29 11:02:18;;;;;;;4.90;4.40;;;29.80;99.90;;;;;;4989852;28;21194;-78
2021/07/29 11:04:54;;;;;;;4.37;3.50;;;29.40;99.90;;;;;;4975031;28;20415;-78
2021/07/29 11:07:19;;;;;;;3.80;3.53;;;29.20;99.90;;;;;;4974805;28;20481;-77
2021/07/29 11:09:46;;;;;;;4.27;3.83;;;29.30;99.90;;;;;;4974722;28;20416;-78
2021/07/29 11:12:16;;;;;;;4.20;3.90;;;29.30;99.90;;;;;;4974497;28;20673;-78
2021/07/29 11:14:43;;;;;;;3.60;3.27;;;29.20;99.90;;;;;;4974615;28;20506;-78
2021/07/29 11:17:10;;;;;;;4.13;3.53;;;29.00;99.90;;;;;;4974801;28;20510;-78
2021/07/29 11:19:46;;;;;;;4.03;3.73;;;29.10;99.90;;;;;;4989338;28;20427;-78
2021/07/29 11:22:12;;;;;;;3.83;3.50;;;28.60;99.90;;;;;;4973000;28;20542;-78
2021/07/29 11:24:38;;;;;;;3.63;3.43;;;28.20;99.90;;;;;;4974086;28;20765;-78
2021/07/29 11:27:10;;;;;;;3.93;3.23;;;28.30;99.90;;;;;;4989220;28;20941;-77
2021/07/29 11:29:53;;;;;;;3.80;3.40;;;28.20;99.90;;;;;;4989550;28;20799;-78
2021/07/29 11:32:21;;;;;;;3.47;3.27;;;28.10;99.90;;;;;;4970975;28;20474;-74
2021/07/29 11:34:55;;;;;;;4.30;3.90;;;28.30;99.90;;;;;;4973643;28;20976;-74
2021/07/29 11:37:21;;;;;;;4.90;4.47;;;28.60;99.90;;;;;;4973960;28;20446;-77
2021/07/29 11:39:47;;;;;;;5.70;3.40;;;28.50;99.90;;;;;;4973967;28;20443;-75
2021/07/29 11:42:12;;;;;;;3.67;3.33;;;28.40;99.90;;;;;;4973705;28;20197;-78
2021/07/29 11:44:47;;;;;;;4.27;3.97;;;28.20;99.90;;;;;;4988798;28;20498;-75
2021/07/29 11:47:14;;;;;;;4.13;3.83;;;28.10;99.90;;;;;;4973779;28;20175;-76
2021/07/29 11:49:50;;;;;;;4.50;3.87;;;28.30;99.90;;;;;;4973837;28;20415;-75
2021/07/29 11:52:17;;;;;;;5.60;4.40;;;28.50;99.90;;;;;;4973692;28;20474;-77
2021/07/29 11:54:43;;;;;;;6.33;3.00;;;28.20;99.90;;;;;;4973383;28;20496;-77
2021/07/29 11:57:09;;;;;;;6.13;3.03;;;28.10;99.90;;;;;;4973637;28;20446;-77
2021/07/29 11:59:46;;;;;;;6.10;3.77;;;27.90;99.90;;;;;;4973548;28;20234;-78
2021/07/29 12:02:12;;;;;;;4.40;3.33;;;28.00;99.90;;;;;;4987950;28;20473;-77
2021/07/29 12:04:44;;;;;;;5.80;3.90;;;28.30;99.90;;;;;;4973415;28;20451;-78
2021/07/29 12:07:11;;;;;;;4.50;4.10;;;28.20;99.90;;;;;;4973610;28;20609;-77
2021/07/29 12:09:43;;;;;;;4.70;4.30;;;27.90;99.90;;;;;;4973648;28;20415;-78
2021/07/29 12:12:10;;;;;;;3.50;3.10;;;27.60;99.90;;;;;;4973389;28;20493;-78
2021/07/29 12:14:36;;;;;;;5.00;3.90;;;27.00;99.90;;;;;;4973334;28;20475;-79
2021/07/29 12:17:02;;;;;;;4.67;4.00;;;26.90;99.90;;;;;;4988326;28;20929;-78
2021/07/29 12:19:28;;;;;;;6.13;3.83;;;26.90;99.90;;;;;;4973399;28;20470;-77
2021/07/29 12:21:54;;;;;;;5.03;3.47;;;27.00;99.90;;;;;;4973228;28;20219;-77
2021/07/29 12:24:20;;;;;;;5.13;3.57;;;26.90;99.90;;;;;;4973063;28;20172;-77
2021/07/29 12:27:08;;;;;;;2.83;2.53;;;26.90;99.90;;;;;;4988318;28;20419;-77
2021/07/29 12:29:44;;;;;;;3.20;3.00;;;26.80;99.90;;;;;;4973131;28;20637;-77
2021/07/29 12:32:20;;;;;;;5.00;3.70;;;26.50;99.90;;;;;;4972914;28;20851;-77
2021/07/29 12:34:46;;;;;;;4.13;3.83;;;26.20;99.90;;;;;;4987689;28;20491;-78
2021/07/29 12:37:12;;;;;;;4.33;3.97;;;26.10;99.90;;;;;;4988290;28;20431;-78
2021/07/29 12:39:40;;;;;;;5.60;3.80;;;26.20;99.90;;;;;;4973075;28;20412;-77
2021/07/29 12:42:23;;;;;;;3.47;3.17;;;26.30;99.90;;;;;;4973357;28;20196;-78
2021/07/29 12:44:59;;;;;;;4.07;3.67;;;26.50;99.90;;;;;;4987721;28;20427;-77
2021/07/29 12:47:25;;;;;;;3.77;3.40;;;26.50;99.90;;;;;;4987807;28;20426;-77
2021/07/29 12:49:51;;;;;;;4.80;3.30;;;26.60;99.90;;;;;;4987687;28;20503;-78
2021/07/29 12:52:21;;;;;;;3.30;2.90;;;26.80;99.90;;;;;;4972788;28;20534;-77
2021/07/29 12:55:07;;;;;;;3.57;3.00;;;27.00;99.90;;;;;;4972666;28;20207;-77
2021/07/29 12:57:53;;;;;;;3.93;3.60;;;27.00;99.90;;;;;;4972721;28;20415;-78
2021/07/29 13:00:22;;;;;;;4.00;3.70;;;26.50;99.90;;;;;;4972901;28;20928;-77
2021/07/29 13:02:48;;;;;;;3.90;3.60;;;26.30;99.90;;;;;;4972256;28;20436;-76
2021/07/29 13:05:14;;;;;;;3.03;2.80;;;26.20;99.90;;;;;;4972616;28;20416;-75
2021/07/29 13:07:40;;;;;;;3.67;3.37;;;26.20;99.90;;;;;;4972707;28;20415;-78
2021/07/29 13:10:06;;;;;;;5.50;3.50;;;26.20;99.90;;;;;;4972674;28;20259;-76
2021/07/29 13:12:33;;;;;;;4.60;3.87;;;26.10;99.90;;;;;;4985053;28;20196;-77
2021/07/29 13:15:00;;;;;;;3.70;3.40;;;26.20;99.90;;;;;;4976312;28;20459;-76
2021/07/29 13:17:26;;;;;;;3.63;3.30;;;26.20;99.90;;;;;;4987423;28;20424;-76
2021/07/29 13:19:51;;;;;;;3.80;3.50;;;26.20;99.90;;;;;;4972526;28;20789;-77
2021/07/29 13:22:17;;;;;;;5.83;3.70;;;26.20;99.90;;;;;;4987363;28;20247;-77
2021/07/29 13:24:42;;;;;;;3.87;2.93;;;26.40;99.90;;;;;;4972239;28;20176;-77
2021/07/29 13:27:08;;;;;;;3.67;3.37;;;26.50;99.90;;;;;;4972487;28;20731;-75
2021/07/29 13:29:34;;;;;;;5.10;3.80;;;26.60;99.90;;;;;;4972350;28;20230;-77
2021/07/29 13:32:03;;;;;;;3.70;3.40;;;26.40;99.90;;;;;;4971948;28;20588;-76
2021/07/29 13:34:29;;;;;;;3.83;3.53;;;26.10;99.90;;;;;;4986971;28;20212;-77
2021/07/29 13:36:56;;;;;;;3.00;2.70;;;26.10;99.90;;;;;;4987163;28;20438;-76
2021/07/29 13:39:22;;;;;;;7.90;3.63;;;26.10;99.90;;;;;;4987098;28;20645;-75
2021/07/29 13:41:48;;;;;;;4.60;3.60;;;26.10;99.90;;;;;;4972008;28;20501;-78
2021/07/29 13:44:19;;;;;;;4.10;3.67;;;26.10;99.90;;;;;;4972157;28;20775;-77
2021/07/29 13:46:50;;;;;;;4.73;4.23;;;26.00;99.90;;;;;;4986885;28;20222;-77
2021/07/29 13:49:16;;;;;;;4.03;3.33;;;25.80;99.90;;;;;;4972284;28;20411;-77
2021/07/29 13:51:42;;;;;;;3.83;3.27;;;25.80;99.90;;;;;;4986733;28;20471;-75
2021/07/29 13:54:07;;;;;;;4.93;3.30;;;25.90;99.90;;;;;;4972108;28;20510;-77
2021/07/29 13:56:33;;;;;;;6.30;3.93;;;26.10;99.90;;;;;;4972168;28;20180;-77
2021/07/29 13:58:58;;;;;;;4.10;3.70;;;26.10;99.90;;;;;;4972358;28;20598;-75
2021/07/29 14:01:25;;;;;;;5.50;3.50;;;26.10;99.90;;;;;;4972035;28;20220;-76
2021/07/29 14:03:56;;;;;;;4.87;3.00;;;26.00;99.90;;;;;;4972147;28;20219;-77
2021/07/29 14:06:22;;;;;;;3.67;2.97;;;26.10;99.90;;;;;;4972193;28;20452;-76
2021/07/29 14:08:49;;;;;;;3.80;2.93;;;26.20;99.90;;;;;;4971937;28;20783;-77
2021/07/29 14:11:16;;;;;;;3.57;3.27;;;26.10;99.90;;;;;;4971920;28;20200;-77
2021/07/29 14:13:42;;;;;;;3.50;3.07;;;26.10;99.90;;;;;;4971838;28;20463;-76
2021/07/29 14:16:08;;;;;;;3.40;3.20;;;26.00;99.90;;;;;;4969016;28;20427;-74
2021/07/29 14:18:36;;;;;;;4.27;3.53;;;25.80;99.90;;;;;;4981307;28;20176;-75
2021/07/29 14:21:12;;;;;;;3.47;3.17;;;25.60;99.90;;;;;;4991049;28;20449;-72
2021/07/29 14:23:38;;;;;;;4.20;2.80;;;25.60;99.90;;;;;;4994218;28;20981;-74
2021/07/29 14:26:04;;;;;;;3.43;2.90;;;25.60;99.90;;;;;;4994666;28;20541;-73
2021/07/29 14:28:30;;;;;;;2.97;2.77;;;25.60;99.90;;;;;;4994502;28;20214;-75
2021/07/29 14:30:56;;;;;;;4.43;4.03;;;25.80;99.90;;;;;;4994096;28;20645;-77
2021/07/29 14:33:22;;;;;;;3.27;2.97;;;25.70;99.90;;;;;;5009406;28;20610;-78
2021/07/29 14:35:49;;;;;;;3.70;3.40;;;25.70;99.90;;;;;;4994270;28;20418;-75
2021/07/29 14:38:16;;;;;;;6.50;2.80;;;25.80;99.90;;;;;;5009456;28;20476;-78
2021/07/29 14:40:43;;;;;;;3.40;3.00;;;25.70;99.90;;;;;;4994207;28;20931;-75
2021/07/29 14:43:09;;;;;;;4.83;3.20;;;25.50;99.90;;;;;;4994305;28;20477;-75
2021/07/29 14:46:06;;;;;;;4.27;3.87;;;25.30;99.90;;;;;;5008841;28;20660;-76
2021/07/29 14:49:13;;;;;;;3.63;3.13;;;25.20;99.90;;;;;;4994231;28;20429;-77
2021/07/29 14:51:23;;;;;;;4.77;3.33;;;24.90;99.90;;;;;;4992606;28;20454;-77
2021/07/29 14:53:48;;;;;;;4.33;2.90;;;25.10;99.90;;;;;;4994007;28;20462;-78
2021/07/29 14:56:18;;;;;;;2.73;2.47;;;25.20;99.90;;;;;;4994059;28;20221;-78
2021/07/29 16:07:13;;;;;;;8.37;3.23;;;24.50;99.90;;;;;;4992870;28;20969;-77
2021/07/29 16:09:39;;;;;;;2.93;2.70;;;24.50;99.90;;;;;;4992941;28;20832;-78
2021/07/29 16:12:05;;;;;;;3.50;2.70;;;24.50;99.90;;;;;;4992501;28;20545;-76
2021/07/29 16:14:31;;;;;;;3.43;3.13;;;24.50;99.90;;;;;;4992710;28;20206;-76
2021/07/29 16:16:57;;;;;;;2.40;2.30;;;24.50;99.90;;;;;;4992833;28;20403;-75
2021/07/29 16:19:23;;;;;;;3.30;2.87;;;24.30;99.90;;;;;;4973221;28;20176;-77
2021/07/29 16:21:50;;;;;;;3.50;3.20;;;24.20;99.90;;;;;;4972867;28;20590;-77
2021/07/29 16:24:18;;;;;;;4.13;3.17;;;24.10;99.90;;;;;;4973846;28;20415;-77
2021/07/29 16:26:54;;;;;;;5.40;2.77;;;24.00;99.90;;;;;;4973436;28;20407;-75
2021/07/29 16:29:20;;;;;;;3.17;2.97;;;23.90;99.90;;;;;;4973572;28;20412;-79
2021/07/29 16:31:47;;;;;;;3.03;2.83;;;23.80;99.90;;;;;;4972993;28;20458;-78
2021/07/29 16:34:13;;;;;;;4.60;3.27;;;23.70;99.90;;;;;;4973389;28;21051;-77
2021/07/29 16:36:39;;;;;;;3.30;3.10;;;23.80;99.90;;;;;;4973956;28;20415;-79
2021/07/29 16:39:04;;;;;;;2.90;2.50;;;23.70;99.90;;;;;;4973791;28;20680;-78
2021/07/29 16:41:31;;;;;;;2.67;2.47;;;23.60;99.90;;;;;;4972255;28;20439;-77
2021/07/29 16:43:56;;;;;;;3.60;3.30;;;23.50;99.90;;;;;;4971540;28;20184;-77
2021/07/29 16:46:22;;;;;;;4.03;2.87;;;23.40;99.90;;;;;;4973134;28;20419;-77
2021/07/29 16:48:48;;;;;;;3.03;2.43;;;23.40;99.90;;;;;;4973410;28;20451;-77
2021/07/29 16:51:13;;;;;;;3.30;3.00;;;23.40;99.90;;;;;;4973258;28;20748;-78
2021/07/29 16:53:39;;;;;;;3.13;2.93;;;23.40;99.90;;;;;;4973308;28;20171;-77
2021/07/29 16:56:05;;;;;;;2.90;2.70;;;23.40;99.90;;;;;;4973035;28;20176;-78
2021/07/29 16:58:32;;;;;;;2.97;2.70;;;23.40;99.90;;;;;;4973269;28;20172;-77
2021/07/29 17:01:00;;;;;;;3.20;2.90;;;23.40;99.90;;;;;;4971255;28;20924;-70
2021/07/29 17:03:25;;;;;;;3.40;2.80;;;23.40;99.90;;;;;;4977742;28;20463;-70
2021/07/29 17:05:51;;;;;;;3.20;3.00;;;23.30;99.90;;;;;;4972059;28;20430;-70
2021/07/29 17:08:16;;;;;;;3.50;3.20;;;23.20;99.90;;;;;;4972226;28;20172;-72
2021/07/29 17:10:42;;;;;;;3.33;2.60;;;23.20;99.90;;;;;;4971967;28;20176;-74
2021/07/29 17:13:08;;;;;;;2.73;2.50;;;23.10;99.90;;;;;;4972202;28;20654;-73
2021/07/29 17:15:34;;;;;;;3.10;2.90;;;23.10;99.90;;;;;;4972396;28;20215;-70
2021/07/29 17:17:59;;;;;;;7.70;3.50;;;23.10;99.90;;;;;;4971924;28;20798;-73
2021/07/29 17:20:25;;;;;;;5.90;3.33;;;23.00;99.90;;;;;;4972512;28;20415;-73
2021/07/29 17:22:51;;;;;;;4.07;3.50;;;23.00;99.90;;;;;;4971991;28;20242;-69
2021/07/29 17:25:16;;;;;;;17.73;7.13;;;22.90;99.90;;;;;;4972350;28;20262;-71
2021/07/29 17:27:42;;;;;;;8.57;3.83;;;22.90;99.90;;;;;;4972266;28;20187;-70
2021/07/29 17:30:07;;;;;;;8.57;3.40;;;22.80;99.90;;;;;;4972286;28;20200;-71
2021/07/29 17:32:33;;;;;;;3.83;3.47;;;22.80;99.90;;;;;;4986424;28;20255;-73
2021/07/29 17:34:59;;;;;;;3.90;3.20;;;22.80;99.90;;;;;;4971891;28;20692;-72
2021/07/29 17:37:24;;;;;;;6.37;3.57;;;22.70;99.90;;;;;;4972435;28;20203;-74
2021/07/29 17:39:50;;;;;;;2.90;2.60;;;22.70;99.90;;;;;;4972003;28;20515;-71
2021/07/29 17:42:16;;;;;;;5.00;2.90;;;22.60;99.90;;;;;;4971891;28;20192;-72
2021/07/29 17:44:41;;;;;;;3.53;3.23;;;22.60;99.90;;;;;;4986756;28;20184;-73
2021/07/29 17:47:08;;;;;;;3.40;3.20;;;22.50;99.90;;;;;;4971901;28;20206;-71
2021/07/29 17:49:34;;;;;;;3.37;2.93;;;22.40;99.90;;;;;;4972026;28;20176;-70
2021/07/29 17:51:59;;;;;;;4.03;2.90;;;22.40;99.90;;;;;;4971573;28;20435;-74
2021/07/29 17:54:26;;;;;;;4.50;2.63;;;22.30;99.90;;;;;;4971498;28;20673;-74
2021/07/29 17:56:51;;;;;;;3.50;2.63;;;22.30;99.90;;;;;;4974348;28;20222;-72
2021/07/29 17:59:17;;;;;;;2.83;2.63;;;22.30;99.90;;;;;;4975595;28;20815;-72
2021/07/29 18:01:43;;;;;;;3.37;3.07;;;22.20;99.90;;;;;;4990443;28;20231;-74
2021/07/29 18:04:09;;;;;;;2.50;2.30;;;22.20;99.90;;;;;;4975732;28;20280;-72
2021/07/29 18:06:35;;;;;;;6.83;2.90;;;22.10;99.90;;;;;;4975512;28;20184;-71
2021/07/29 18:09:01;;;;;;;3.30;2.73;;;22.10;99.90;;;;;;4975490;28;20180;-71
2021/07/29 18:11:27;;;;;;;3.30;2.70;;;22.00;99.90;;;;;;4975332;28;20434;-72
2021/07/29 18:13:52;;;;;;;4.50;3.20;;;22.00;99.90;;;;;;4975215;28;20199;-72
2021/07/29 18:16:19;;;;;;;2.93;2.73;;;21.90;99.90;;;;;;4974946;28;20173;-73
2021/07/29 18:18:44;;;;;;;3.10;2.90;;;21.90;99.90;;;;;;4990077;28;20204;-75
2021/07/29 18:21:10;;;;;;;2.53;2.33;;;21.80;99.90;;;;;;4974804;28;20462;-71
2021/07/29 18:23:36;;;;;;;2.80;2.60;;;21.70;99.90;;;;;;4975124;28;20167;-74
2021/07/29 18:26:01;;;;;;;6.47;4.27;;;21.70;99.90;;;;;;4974864;28;20168;-72
2021/07/29 18:28:27;;;;;;;4.83;4.33;;;21.70;99.90;;;;;;4975084;28;20207;-72